createdAt,value
2022-12-31T00:00:16.461Z,146.20
2022-12-31T00:02:43.522Z,145.68
2022-12-31T00:05:11.266Z,130.63
2022-12-31T00:10:05.184Z,159.35
2022-12-31T00:12:32.249Z,170.30
2022-12-31T00:14:59.454Z,158.57
2022-12-31T00:17:26.553Z,132.95
2022-12-31T00:19:53.509Z,132.48
2022-12-31T00:22:20.633Z,129.02
2022-12-31T00:24:47.647Z,137.55
2022-12-31T00:27:16.374Z,128.00
2022-12-31T00:29:43.625Z,122.70
2022-12-31T00:32:10.962Z,135.60
2022-12-31T00:34:37.997Z,132.13
2022-12-31T00:37:05.018Z,128.38
2022-12-31T00:39:32.119Z,133.10
2022-12-31T00:41:59.192Z,129.90
2022-12-31T00:44:26.506Z,128.80
2022-12-31T00:46:54.017Z,130.10
2022-12-31T00:49:20.982Z,126.90
2022-12-31T00:51:48.214Z,114.88
2022-12-31T00:54:15.516Z,119.50
2022-12-31T00:56:42.658Z,118.05
2022-12-31T00:59:09.617Z,115.40
2022-12-31T01:01:39.734Z,120.10
2022-12-31T01:04:19.268Z,112.35
2022-12-31T01:06:47.717Z,113.07
2022-12-31T01:09:18.511Z,111.57
2022-12-31T01:11:45.530Z,112.78
2022-12-31T01:14:19.313Z,112.15
2022-12-31T01:16:52.449Z,97.63
2022-12-31T01:19:29.043Z,108.28
2022-12-31T01:21:57.193Z,103.18
2022-12-31T01:24:24.667Z,113.63
2022-12-31T01:26:51.857Z,109.68
2022-12-31T01:29:19.023Z,97.80
2022-12-31T01:31:46.376Z,107.57
2022-12-31T01:34:13.384Z,103.18
2022-12-31T01:36:40.435Z,101.65
2022-12-31T01:39:09.349Z,96.93
2022-12-31T01:41:43.671Z,90.97
2022-12-31T01:44:13.736Z,95.30
2022-12-31T01:46:50.258Z,105.88
2022-12-31T01:49:58.596Z,97.28
2022-12-31T01:52:37.601Z,94.88
2022-12-31T01:55:31.859Z,94.38
2022-12-31T01:58:12.330Z,99.35
2022-12-31T02:00:39.647Z,96.78
2022-12-31T02:03:08.423Z,92.68
2022-12-31T02:05:49.405Z,97.47
2022-12-31T02:08:16.506Z,96.90
2022-12-31T02:10:43.816Z,93.05
2022-12-31T02:13:11.457Z,98.38
2022-12-31T02:15:53.230Z,89.20
2022-12-31T02:18:59.673Z,91.50
2022-12-31T02:21:43.289Z,97.80
2022-12-31T02:24:57.011Z,96.50
2022-12-31T02:27:49.756Z,94.25
2022-12-31T02:30:23.845Z,86.13
2022-12-31T02:33:10.444Z,92.65
2022-12-31T02:35:46.999Z,84.53
2022-12-31T02:38:30.052Z,79.93
2022-12-31T02:40:58.009Z,77.28
2022-12-31T02:43:27.425Z,90.90
2022-12-31T02:46:13.782Z,77.85
2022-12-31T02:48:57.604Z,80.38
2022-12-31T02:52:15.919Z,73.95
2022-12-31T02:54:53.602Z,77.18
2022-12-31T02:57:27.618Z,75.53
2022-12-31T03:00:19.978Z,74.05
2022-12-31T03:02:48.606Z,72.47
2022-12-31T03:05:19.859Z,74.18
2022-12-31T03:07:47.046Z,74.35
2022-12-31T03:10:14.113Z,69.03
2022-12-31T03:12:47.359Z,69.10
2022-12-31T03:15:20.287Z,73.47
2022-12-31T03:18:07.565Z,74.07
2022-12-31T03:20:57.366Z,63.95
2022-12-31T03:23:51.016Z,69.38
2022-12-31T03:28:48.008Z,73.00
2022-12-31T03:31:16.521Z,71.63
2022-12-31T03:33:43.687Z,69.35
2022-12-31T03:36:14.902Z,72.20
2022-12-31T03:38:42.519Z,76.63
2022-12-31T03:41:11.219Z,75.07
2022-12-31T03:43:38.506Z,71.40
2022-12-31T03:46:05.771Z,72.28
2022-12-31T03:48:32.792Z,72.90
2022-12-31T03:50:59.710Z,70.80
2022-12-31T03:53:27.439Z,70.38
2022-12-31T03:55:54.970Z,64.72
2022-12-31T03:58:22.418Z,72.32
2022-12-31T04:00:49.959Z,78.85
2022-12-31T04:03:17.147Z,76.50
2022-12-31T04:05:44.098Z,81.40
2022-12-31T04:08:11.316Z,78.40
2022-12-31T04:10:38.325Z,77.00
2022-12-31T04:13:05.290Z,77.75
2022-12-31T04:15:32.393Z,70.65
2022-12-31T04:17:59.381Z,79.32
2022-12-31T04:20:26.347Z,79.53
2022-12-31T04:22:53.558Z,77.85
2022-12-31T04:25:20.484Z,78.05
2022-12-31T04:27:47.860Z,77.97
2022-12-31T04:30:14.911Z,69.68
2022-12-31T04:32:42.426Z,73.68
2022-12-31T04:35:10.851Z,77.15
2022-12-31T04:37:38.056Z,76.82
2022-12-31T04:40:07.209Z,76.00
2022-12-31T04:42:35.886Z,76.55
2022-12-31T04:45:03.525Z,73.07
2022-12-31T04:47:30.488Z,78.28
2022-12-31T04:49:57.407Z,82.68
2022-12-31T04:52:25.422Z,81.65
2022-12-31T04:54:52.391Z,78.88
2022-12-31T04:57:19.363Z,73.82
2022-12-31T04:59:46.301Z,80.68
2022-12-31T05:02:13.386Z,78.28
2022-12-31T05:04:40.471Z,78.07
2022-12-31T05:07:07.431Z,73.32
2022-12-31T05:09:34.624Z,76.20
2022-12-31T05:12:01.608Z,75.32
2022-12-31T05:14:28.637Z,74.70
2022-12-31T05:16:55.820Z,75.13
2022-12-31T05:19:22.759Z,79.20
2022-12-31T05:22:09.630Z,76.65
2022-12-31T05:24:36.605Z,77.05
2022-12-31T05:27:03.883Z,76.38
2022-12-31T05:29:30.956Z,74.13
2022-12-31T05:31:57.993Z,79.13
2022-12-31T05:34:24.909Z,75.63
2022-12-31T05:36:51.858Z,80.72
2022-12-31T05:39:18.736Z,75.35
2022-12-31T05:41:45.621Z,79.93
2022-12-31T05:44:12.615Z,76.20
2022-12-31T05:46:39.651Z,80.03
2022-12-31T05:49:06.560Z,78.22
2022-12-31T05:51:34.200Z,73.30
2022-12-31T05:54:01.077Z,81.82
2022-12-31T05:56:28.007Z,79.90
2022-12-31T05:58:54.902Z,73.57
2022-12-31T06:01:22.214Z,76.40
2022-12-31T06:03:49.335Z,79.72
2022-12-31T06:06:16.299Z,75.07
2022-12-31T06:08:43.232Z,80.07
2022-12-31T06:11:10.207Z,81.18
2022-12-31T06:13:37.156Z,75.90
2022-12-31T06:16:08.784Z,79.53
2022-12-31T06:18:35.895Z,83.75
2022-12-31T06:21:04.176Z,78.40
2022-12-31T06:23:31.302Z,85.88
2022-12-31T06:26:05.617Z,81.70
2022-12-31T06:28:33.065Z,84.13
2022-12-31T06:31:02.124Z,80.55
2022-12-31T06:33:29.372Z,88.35
2022-12-31T06:35:58.216Z,79.80
2022-12-31T06:38:26.992Z,80.20
2022-12-31T06:40:54.062Z,80.72
2022-12-31T06:43:21.292Z,85.07
2022-12-31T06:45:48.778Z,78.93
2022-12-31T06:48:16.679Z,78.47
2022-12-31T06:50:43.648Z,80.18
2022-12-31T06:53:11.984Z,78.95
2022-12-31T06:55:39.571Z,80.68
2022-12-31T06:58:06.953Z,78.18
2022-12-31T07:00:34.234Z,75.63
2022-12-31T07:03:22.835Z,72.40
2022-12-31T07:06:10.260Z,79.05
2022-12-31T07:08:51.751Z,83.70
2022-12-31T07:11:36.059Z,73.05
2022-12-31T07:14:22.437Z,77.30
2022-12-31T07:17:04.439Z,72.10
2022-12-31T07:19:57.680Z,73.25
2022-12-31T07:22:25.661Z,77.82
2022-12-31T07:24:53.221Z,84.18
2022-12-31T07:27:50.427Z,76.60
2022-12-31T07:30:58.005Z,75.95
2022-12-31T07:33:48.845Z,81.43
2022-12-31T07:36:31.150Z,78.40
2022-12-31T07:39:37.910Z,76.93
2022-12-31T07:42:19.717Z,78.75
2022-12-31T07:45:01.413Z,73.85
2022-12-31T07:47:29.751Z,79.07
2022-12-31T07:49:57.971Z,83.10
2022-12-31T07:52:25.981Z,73.68
2022-12-31T07:54:53.000Z,71.60
2022-12-31T07:57:21.378Z,70.57
2022-12-31T08:00:26.959Z,74.57
2022-12-31T08:03:16.745Z,75.85
2022-12-31T08:05:51.188Z,75.88
2022-12-31T08:09:02.521Z,70.10
2022-12-31T08:11:41.299Z,77.55
2022-12-31T08:14:11.946Z,78.53
2022-12-31T08:16:39.910Z,78.85
2022-12-31T08:19:07.648Z,79.15
2022-12-31T08:22:04.485Z,68.00
2022-12-31T08:24:52.645Z,82.35
2022-12-31T08:27:37.507Z,79.03
2022-12-31T08:30:11.348Z,78.65
2022-12-31T08:32:50.200Z,76.28
2022-12-31T08:35:45.641Z,73.05
2022-12-31T08:38:40.483Z,80.50
2022-12-31T08:44:13.581Z,78.65
2022-12-31T08:47:23.041Z,79.07
2022-12-31T08:49:50.575Z,75.72
2022-12-31T08:52:25.090Z,75.18
2022-12-31T08:54:53.190Z,76.78
2022-12-31T08:57:37.051Z,80.57
2022-12-31T09:00:10.795Z,77.28
2022-12-31T09:03:05.119Z,73.30
2022-12-31T09:05:47.620Z,76.28
2022-12-31T09:08:30.688Z,82.60
2022-12-31T09:11:08.541Z,79.47
2022-12-31T09:13:59.875Z,76.65
2022-12-31T09:17:05.605Z,76.70
2022-12-31T09:19:32.787Z,78.18
2022-12-31T09:22:00.076Z,76.72
2022-12-31T09:24:27.955Z,82.82
2022-12-31T09:27:23.886Z,75.05
2022-12-31T09:30:08.126Z,79.75
2022-12-31T09:33:03.524Z,76.97
2022-12-31T09:35:41.982Z,76.40
2022-12-31T09:38:42.381Z,77.57
2022-12-31T09:41:35.789Z,79.65
2022-12-31T09:44:21.873Z,74.35
2022-12-31T10:23:53.670Z,74.07
2022-12-31T10:27:03.311Z,73.35
2022-12-31T10:30:22.983Z,78.05
2022-12-31T10:33:37.450Z,76.95
2022-12-31T10:36:52.630Z,75.53
2022-12-31T10:40:24.437Z,77.65
2022-12-31T10:43:21.511Z,82.28
2022-12-31T10:46:16.346Z,78.72
2022-12-31T10:49:34.170Z,79.30
2022-12-31T10:52:25.224Z,76.15
2022-12-31T10:55:49.378Z,77.13
2022-12-31T10:58:31.579Z,78.18
2022-12-31T11:01:20.509Z,79.13
2022-12-31T11:04:23.166Z,80.38
2022-12-31T11:07:42.469Z,77.50
2022-12-31T11:10:46.719Z,75.53
2022-12-31T11:13:53.093Z,77.15
2022-12-31T11:16:57.177Z,79.57
2022-12-31T11:19:52.232Z,75.47
2022-12-31T11:22:34.918Z,77.93
2022-12-31T11:25:27.699Z,72.82
2022-12-31T11:28:03.868Z,67.90
2022-12-31T11:30:52.468Z,74.70
2022-12-31T11:34:16.879Z,70.93
2022-12-31T11:37:41.613Z,73.00
2022-12-31T11:40:37.761Z,73.60
2022-12-31T11:43:24.926Z,73.80
2022-12-31T11:46:21.756Z,71.97
2022-12-31T11:49:16.675Z,71.03
2022-12-31T11:52:21.665Z,74.88
2022-12-31T11:55:16.730Z,69.45
2022-12-31T11:57:50.659Z,73.35
2022-12-31T12:00:25.792Z,80.93
2022-12-31T12:03:02.573Z,68.97
2022-12-31T12:05:30.341Z,71.55
2022-12-31T12:07:57.822Z,69.50
2022-12-31T12:10:38.637Z,73.57
2022-12-31T12:13:17.704Z,68.57
2022-12-31T12:15:59.279Z,70.40
2022-12-31T12:18:42.295Z,70.00
2022-12-31T12:21:17.257Z,69.50
2022-12-31T12:24:05.314Z,66.32
2022-12-31T12:26:35.663Z,70.45
2022-12-31T12:29:14.759Z,67.35
2022-12-31T12:31:42.777Z,68.30
2022-12-31T12:34:43.121Z,70.57
2022-12-31T12:37:25.124Z,65.75
2022-12-31T12:40:10.056Z,64.28
2022-12-31T12:42:48.096Z,66.50
2022-12-31T12:45:26.873Z,69.93
2022-12-31T12:47:59.101Z,64.78
2022-12-31T12:50:44.187Z,63.78
2022-12-31T12:53:35.444Z,67.38
2022-12-31T12:56:41.292Z,62.42
2022-12-31T12:59:54.471Z,65.30
2022-12-31T13:02:52.450Z,66.95
2022-12-31T13:05:34.681Z,65.90
2022-12-31T13:08:19.834Z,68.90
2022-12-31T13:11:01.393Z,69.70
2022-12-31T13:14:13.245Z,66.40
2022-12-31T13:16:55.466Z,66.70
2022-12-31T13:19:43.052Z,70.05
2022-12-31T13:22:26.627Z,70.63
2022-12-31T13:25:30.822Z,66.83
2022-12-31T13:28:04.607Z,67.90
2022-12-31T13:31:06.515Z,71.35
2022-12-31T13:33:41.614Z,69.07
2022-12-31T13:36:15.601Z,74.25
2022-12-31T13:38:53.460Z,72.18
2022-12-31T13:41:35.274Z,73.70
2022-12-31T13:44:08.873Z,73.07
2022-12-31T13:46:48.459Z,78.10
2022-12-31T13:49:19.529Z,71.90
2022-12-31T13:51:52.186Z,67.60
2022-12-31T13:54:41.212Z,69.50
2022-12-31T13:57:40.662Z,69.90
2022-12-31T14:00:24.302Z,75.10
2022-12-31T14:02:59.226Z,72.53
2022-12-31T14:05:33.419Z,73.78
2022-12-31T14:08:04.236Z,74.28
2022-12-31T14:10:54.742Z,70.40
2022-12-31T14:13:43.965Z,69.50
2022-12-31T14:16:41.446Z,72.50
2022-12-31T14:19:41.362Z,68.32
2022-12-31T14:22:19.403Z,74.43
2022-12-31T14:24:51.093Z,71.43
2022-12-31T14:27:34.924Z,74.93
2022-12-31T14:30:20.738Z,71.60
2022-12-31T14:33:12.114Z,76.28
2022-12-31T14:36:18.089Z,76.07
2022-12-31T14:39:25.516Z,76.97
2022-12-31T14:42:20.535Z,76.53
2022-12-31T14:45:26.875Z,71.55
2022-12-31T14:48:24.498Z,77.60
2022-12-31T14:50:53.118Z,70.68
2022-12-31T14:53:26.870Z,76.45
2022-12-31T14:56:42.885Z,73.30
2022-12-31T14:59:33.373Z,75.18
2022-12-31T15:02:24.221Z,74.55
2022-12-31T15:04:51.352Z,74.13
2022-12-31T15:07:31.378Z,78.47
2022-12-31T15:10:13.372Z,80.18
2022-12-31T15:12:50.091Z,74.80
2022-12-31T15:15:59.631Z,75.78
2022-12-31T15:18:46.922Z,76.28
2022-12-31T15:21:55.046Z,75.07
2022-12-31T15:24:25.558Z,72.88
2022-12-31T15:26:56.971Z,70.93
2022-12-31T15:29:51.761Z,71.15
2022-12-31T15:32:42.125Z,77.07
2022-12-31T15:35:21.294Z,73.57
2022-12-31T15:38:39.725Z,70.88
2022-12-31T15:42:18.837Z,71.82
2022-12-31T15:44:52.863Z,69.95
2022-12-31T15:47:37.386Z,70.55
2022-12-31T15:50:12.657Z,69.20
2022-12-31T15:52:48.022Z,70.25
2022-12-31T15:55:45.614Z,70.78
2022-12-31T15:58:18.255Z,70.43
2022-12-31T16:01:14.084Z,73.65
2022-12-31T16:03:57.998Z,72.93
2022-12-31T16:06:29.519Z,72.20
2022-12-31T16:08:57.305Z,74.15
2022-12-31T16:11:25.528Z,70.38
2022-12-31T16:13:54.975Z,70.55
2022-12-31T16:16:29.286Z,72.50
2022-12-31T16:18:57.126Z,73.18
2022-12-31T16:21:37.831Z,72.70
2022-12-31T16:24:28.078Z,66.70
2022-12-31T16:27:00.330Z,68.57
2022-12-31T16:29:28.477Z,72.65
2022-12-31T16:31:55.524Z,65.97
2022-12-31T16:34:28.090Z,70.53
2022-12-31T16:37:02.645Z,73.05
2022-12-31T16:39:57.622Z,72.10
2022-12-31T16:42:28.140Z,72.60
2022-12-31T16:44:57.705Z,82.22
2022-12-31T16:47:40.373Z,75.65
2022-12-31T16:50:17.077Z,76.90
2022-12-31T16:52:47.551Z,85.35
2022-12-31T16:55:28.118Z,66.85
2022-12-31T16:58:11.608Z,73.15
2022-12-31T17:00:39.481Z,81.80
2022-12-31T17:03:25.053Z,80.50
2022-12-31T17:05:59.826Z,69.57
2022-12-31T17:09:04.595Z,67.38
2022-12-31T17:11:33.683Z,68.90
2022-12-31T17:14:15.046Z,74.72
2022-12-31T17:17:03.146Z,64.55
2022-12-31T17:19:39.290Z,66.68
2022-12-31T17:22:15.939Z,70.03
2022-12-31T17:24:43.084Z,67.82
2022-12-31T17:27:10.681Z,63.45
2022-12-31T17:29:39.115Z,70.95
2022-12-31T17:32:38.886Z,65.32
2022-12-31T17:35:37.231Z,61.15
2022-12-31T17:38:31.867Z,64.72
2022-12-31T17:41:07.760Z,67.75
2022-12-31T17:43:39.177Z,67.70
2022-12-31T17:46:25.971Z,66.57
2022-12-31T17:49:02.448Z,69.70
2022-12-31T17:51:29.446Z,68.68
2022-12-31T17:53:56.617Z,64.57
2022-12-31T17:56:23.624Z,66.90
2022-12-31T17:58:53.627Z,68.03
2022-12-31T18:01:23.083Z,67.35
2022-12-31T18:03:50.268Z,69.18
2022-12-31T18:06:19.636Z,72.60
2022-12-31T18:08:47.078Z,68.30
2022-12-31T18:11:21.748Z,62.83
2022-12-31T18:13:49.201Z,74.78
2022-12-31T18:16:16.659Z,66.82
2022-12-31T18:18:45.387Z,73.38
2022-12-31T18:21:34.176Z,79.32
2022-12-31T18:26:30.393Z,89.93
2022-12-31T18:29:13.537Z,81.72
2022-12-31T18:31:45.064Z,74.90
2022-12-31T18:34:17.185Z,76.32
2022-12-31T18:36:44.681Z,75.22
2022-12-31T18:39:12.133Z,74.45
2022-12-31T18:41:45.874Z,74.80
2022-12-31T18:44:14.893Z,75.70
2022-12-31T18:46:42.900Z,75.35
2022-12-31T18:49:10.042Z,73.68
2022-12-31T18:51:37.259Z,72.43
2022-12-31T18:54:05.101Z,71.95
2022-12-31T18:56:32.251Z,72.32
2022-12-31T18:58:59.819Z,74.50
2022-12-31T19:01:45.198Z,74.90
2022-12-31T19:04:27.011Z,76.05
2022-12-31T19:06:56.085Z,74.07
2022-12-31T19:09:44.598Z,79.30
2022-12-31T19:12:14.509Z,78.10
2022-12-31T19:14:41.456Z,79.32
2022-12-31T19:19:35.122Z,75.05
2022-12-31T19:22:02.860Z,80.50
2022-12-31T19:24:30.155Z,80.85
2022-12-31T19:26:57.074Z,76.20
2022-12-31T19:29:28.459Z,80.65
2022-12-31T19:31:55.517Z,76.07
2022-12-31T19:34:22.546Z,83.22
2022-12-31T19:36:49.634Z,80.72
2022-12-31T19:39:20.245Z,83.10
2022-12-31T19:41:56.572Z,79.18
2022-12-31T19:44:26.038Z,125.45
2022-12-31T19:46:53.156Z,115.88
2022-12-31T19:49:20.148Z,101.30
2022-12-31T19:51:47.157Z,88.82
2022-12-31T19:54:14.161Z,109.30
2022-12-31T19:56:41.228Z,79.85
2022-12-31T19:59:10.707Z,81.40
2022-12-31T20:01:38.840Z,77.28
2022-12-31T20:04:06.073Z,78.88
2022-12-31T20:06:33.324Z,79.75
2022-12-31T20:09:00.349Z,77.68
2022-12-31T20:11:27.718Z,79.82
2022-12-31T20:13:54.787Z,81.00
2022-12-31T20:16:26.860Z,80.22
2022-12-31T20:18:54.397Z,84.95
2022-12-31T20:21:25.883Z,77.32
2022-12-31T20:23:54.648Z,80.57
2022-12-31T20:26:24.925Z,79.35
2022-12-31T20:28:53.380Z,84.75
2022-12-31T20:31:25.106Z,85.47
2022-12-31T20:33:54.348Z,75.88
2022-12-31T20:36:22.864Z,86.85
2022-12-31T20:38:50.349Z,83.75
2022-12-31T20:41:21.371Z,80.18
2022-12-31T20:43:49.477Z,77.18
2022-12-31T20:46:23.199Z,83.68
2022-12-31T20:48:52.385Z,85.82
2022-12-31T20:51:21.085Z,85.70
2022-12-31T20:53:51.336Z,84.38
2022-12-31T20:56:18.968Z,88.82
2022-12-31T20:58:46.891Z,88.10
2022-12-31T21:01:15.837Z,78.20
2022-12-31T21:06:34.315Z,93.55
2022-12-31T21:09:04.299Z,85.25
2022-12-31T21:11:50.225Z,89.22
2022-12-31T21:14:17.414Z,90.50
2022-12-31T21:16:44.399Z,96.80
2022-12-31T21:19:11.419Z,83.70
2022-12-31T21:21:38.325Z,96.63
2022-12-31T21:24:05.886Z,86.15
2022-12-31T21:26:32.835Z,84.82
2022-12-31T21:28:59.933Z,89.78
2022-12-31T21:31:28.073Z,93.95
2022-12-31T21:33:56.082Z,86.45
2022-12-31T21:36:23.341Z,91.15
2022-12-31T21:38:50.308Z,92.57
2022-12-31T21:41:35.707Z,85.28
2022-12-31T21:44:03.555Z,90.55
2022-12-31T21:46:31.482Z,92.45
2022-12-31T21:49:00.164Z,91.13
2022-12-31T21:51:28.740Z,91.28
2022-12-31T21:53:56.228Z,91.93
2022-12-31T21:56:23.891Z,91.57
2022-12-31T21:59:16.014Z,90.70
2022-12-31T22:02:02.652Z,83.32
2022-12-31T22:07:17.115Z,95.00
2022-12-31T22:09:45.297Z,95.57
2022-12-31T22:12:12.351Z,95.10
2022-12-31T22:14:39.473Z,99.20
2022-12-31T22:17:26.423Z,99.78
2022-12-31T22:20:25.220Z,116.40
2022-12-31T22:22:41.357Z,118.68
2022-12-31T22:25:09.591Z,122.72
2022-12-31T22:27:36.579Z,119.55
2022-12-31T22:30:04.721Z,113.10
2022-12-31T22:32:31.645Z,132.30
2022-12-31T22:34:58.839Z,115.57
2022-12-31T22:37:55.526Z,99.90
2022-12-31T22:40:13.248Z,111.93
2022-12-31T22:42:41.030Z,98.57
2022-12-31T22:45:09.359Z,100.68
2022-12-31T22:47:36.376Z,102.47
2022-12-31T22:50:04.554Z,103.53
2022-12-31T22:52:31.759Z,104.57
2022-12-31T22:54:58.990Z,100.30
2022-12-31T22:57:25.905Z,97.95
2022-12-31T22:59:52.955Z,102.78
2022-12-31T23:02:19.986Z,102.43
2022-12-31T23:04:47.012Z,100.15
2022-12-31T23:07:14.000Z,90.22
2022-12-31T23:10:00.216Z,96.25
2022-12-31T23:12:27.496Z,102.13
2022-12-31T23:15:13.135Z,104.13
2022-12-31T23:17:58.727Z,109.55
2022-12-31T23:20:44.726Z,110.28
2022-12-31T23:23:17.446Z,106.15
2022-12-31T23:25:49.865Z,116.88
2022-12-31T23:28:24.351Z,118.72
2022-12-31T23:30:52.120Z,105.70
2022-12-31T23:33:25.454Z,106.38
2022-12-31T23:36:07.289Z,109.55
2022-12-31T23:38:34.481Z,108.32
2022-12-31T23:41:01.470Z,123.18
2022-12-31T23:43:28.779Z,122.95
2022-12-31T23:45:55.859Z,118.43
2022-12-31T23:48:22.877Z,124.50
2022-12-31T23:50:53.808Z,120.65
2022-12-31T23:53:25.444Z,127.10
2022-12-31T23:55:53.473Z,120.68
2022-12-31T23:58:21.345Z,141.27
